Historique des mesures à Cassis (13260), France
Quotidien Résumé Mars 15, 2018 Unités:  Métrique    US   Métrique/US
« Précédent (Jour)
Suivant (Jour) »
Quotidien Hebdomadaire Mensuel Annuel Période au choix
  Maximum: Minimum: Moyenne:
Température: TemperatureC °C 12.7 °C 13 °C
Point de rosée: DewpointC °C 9.5 °C 10.7 °C
Humidité: Humidity % 79 % 82 %
Vitesse du vent: 0 km/h 0 km/h 6 km/h
Rafales: 0 km/h - -
Vent:- - SE
Pression: PressurehPa hPa 993.8 hPa -
Précipitations: 17.0 mm    
Historical Graphs
 
 
Mesures pour : Mars 15, 2018
Heure Temperature Point de rosée Pression Vent Vitesse du vent Rafales Humidité Pluie (par heure) Conditions
TemperatureC °C DewpointC °C PressurehPa hPa Calm     Humidity % HourlyPrecipMM mm SoftwareType W/m2
03:19 13.1 °C 9.5 °C 999.5 hPa Calm     79 % 0.0 mm open2300-1.11 W/m2
04:12 13.1 °C 9.9 °C 998.9 hPa East 27.7 km/h 27.7 km/h 81 % 0.0 mm open2300-1.11 W/m2
05:11 12.8 °C 10.1 °C 997.5 hPa SSE 36.5 km/h 36.5 km/h 84 % 0.0 mm open2300-1.11 W/m2
06:11 12.7 °C 10.6 °C 996.5 hPa ESE 5.6 km/h 13.2 km/h 87 % 2.0 mm open2300-1.11 W/m2
07:11 12.7 °C 10.7 °C 996.2 hPa SE 5.1 km/h 12.2 km/h 88 % 5.1 mm open2300-1.11 W/m2
08:12 13.3 °C 11.5 °C 995.5 hPa SSE 3.4 km/h 19.2 km/h 89 % 3.6 mm open2300-1.11 W/m2
09:11 13.5 °C 11.7 °C 995.1 hPa South 5.1 km/h 9.8 km/h 89 % 2.5 mm open2300-1.11 W/m2
10:11 13.4 °C 11.8 °C 994.1 hPa ESE 5.6 km/h 26.2 km/h 90 % 2.5 mm open2300-1.11 W/m2
11:11 13.5 °C 11.9 °C 994.5 hPa South 4.7 km/h 9.3 km/h 90 % 0.0 mm open2300-1.11 W/m2
12:11 14.0 °C 12.4 °C 994.8 hPa ENE 16.3 km/h 16.3 km/h 90 % 1.0 mm open2300-1.11 W/m2
13:12 14.4 °C 12.6 °C 994.8 hPa East 8 km/h 17.9 km/h 89 % 0.0 mm open2300-1.11 W/m2
14:11 14.3 °C 12.0 °C 994.5 hPa Calm   6.4 km/h 86 % 0.0 mm open2300-1.11 W/m2
15:12 15.1 °C 12.4 °C 993.8 hPa SSE 8 km/h 8 km/h 84 % 0.0 mm open2300-1.11 W/m2
16:11 15.1 °C 12.2 °C 994.1 hPa SE 3.4 km/h 5.1 km/h 83 % 0.0 mm open2300-1.11 W/m2
17:12 14.8 °C 11.9 °C 994.1 hPa Calm     83 % 0.0 mm open2300-1.11 W/m2
18:11 14.3 °C 11.6 °C 994.5 hPa West 1.8 km/h 1.8 km/h 84 % 0.0 mm open2300-1.11 W/m2
19:12 13.8 °C 11.1 °C 995.1 hPa Calm     84 % 0.0 mm open2300-1.11 W/m2
20:12 13.3 °C 10.8 °C 995.5 hPa Calm     85 % 0.0 mm open2300-1.11 W/m2
21:12 13.1 °C 10.6 °C 996.2 hPa Calm     85 % 0.0 mm open2300-1.11 W/m2
22:12 13.2 °C 10.7 °C 997.2 hPa Calm     85 % 0.0 mm open2300-1.11 W/m2
23:12 12.9 °C 10.2 °C 997.2 hPa Calm     84 % 0.0 mm open2300-1.11 W/m2
Observations météo à CASSIS
WU-History script by Weather Underground - 1 mb